Time;durP1;ratioP1;P1;durP2;ratioP2;P2;SDS_P1;SDS_P2;PMS_P1;PMS_P2;Temp;Humidity;BMP_temperature;BMP_pressure;BME280_temperature;BME280_humidity;BME280_pressure;Samples;Min_cycle;Max_cycle;Signal;HPM_P1;HPM_P2
2022/12/09 00:00:29;;;;;;;20.58;1.65;;;;;;;20.91;64.37;98549.66;7316438;19;130518;-35
2022/12/09 00:02:54;;;;;;;2.95;0.50;;;;;;;20.90;64.27;98546.22;7316790;19;129460;-35
2022/12/09 00:05:20;;;;;;;35.70;3.03;;;;;;;20.92;63.50;98548.66;7316039;19;128766;-36
2022/12/09 00:07:45;;;;;;;37.45;2.92;;;;;;;20.92;64.80;98548.66;7313515;19;130251;-39
2022/12/09 00:10:11;;;;;;;10.90;1.20;;;;;;;20.96;65.16;98556.03;7316828;19;130054;-34
2022/12/09 00:12:36;;;;;;;34.10;2.77;;;;;;;20.96;64.19;98548.19;7316139;19;130244;-37
2022/12/09 00:15:02;;;;;;;21.10;1.70;;;;;;;20.97;64.37;98555.09;7315183;19;129396;-32
2022/12/09 00:17:29;;;;;;;26.98;2.08;;;;;;;21.01;64.06;98547.72;7313920;19;129108;-38
2022/12/09 00:19:54;;;;;;;11.55;1.30;;;;;;;20.92;63.93;98544.28;7312478;19;129192;-36
2022/12/09 00:22:19;;;;;;;19.85;1.58;;;;;;;20.78;63.58;98526.59;7314794;19;129384;-34
2022/12/09 00:24:45;;;;;;;33.00;2.47;;;;;;;20.84;63.92;98544.22;7315862;19;129081;-35
2022/12/09 00:27:10;;;;;;;40.80;2.80;;;;;;;20.78;63.89;98531.81;7312525;19;128962;-38
2022/12/09 00:29:35;;;;;;;19.30;1.65;;;;;;;20.95;64.00;98548.34;7313331;19;129298;-34
2022/12/09 00:32:01;;;;;;;33.53;2.40;;;;;;;21.04;63.00;98548.22;7314525;19;129124;-38
2022/12/09 00:34:26;;;;;;;31.27;2.70;;;;;;;21.16;63.16;98549.56;7314340;19;129567;-36
2022/12/09 00:36:51;;;;;;;34.72;3.08;;;;;;;21.27;62.18;98549.22;7314661;19;130010;-34
2022/12/09 00:39:17;;;;;;;25.35;2.28;;;;;;;21.42;62.17;98552.03;7312766;19;129683;-35
2022/12/09 00:41:42;;;;;;;22.70;1.92;;;;;;;21.49;61.30;98532.88;7315015;19;129778;-34
2022/12/09 00:44:08;;;;;;;44.67;3.13;;;;;;;21.62;61.51;98542.84;7313913;19;129841;-36
2022/12/09 00:46:34;;;;;;;20.17;1.63;;;;;;;21.71;61.33;98547.09;7314523;19;128979;-35
2022/12/09 00:48:59;;;;;;;30.48;2.50;;;;;;;21.70;61.12;98541.03;7312534;19;129054;-34
2022/12/09 00:51:24;;;;;;;18.77;1.80;;;;;;;21.72;61.16;98549.53;7314634;19;129239;-36
2022/12/09 00:53:53;;;;;;;37.05;2.70;;;;;;;21.65;61.43;98537.31;7314433;19;129082;-35
2022/12/09 00:56:20;;;;;;;32.55;3.05;;;;;;;21.65;61.53;98545.16;7313583;19;129135;-32
2022/12/09 00:58:45;;;;;;;21.05;1.70;;;;;;;21.60;61.30;98540.38;7312963;19;129011;-35
2022/12/09 01:01:11;;;;;;;15.95;1.35;;;;;;;21.59;61.59;98543.16;7313208;19;129408;-35
2022/12/09 01:03:37;;;;;;;45.03;3.60;;;;;;;21.51;61.59;98544.00;7314419;19;128752;-35
2022/12/09 01:06:08;;;;;;;37.42;3.08;;;;;;;21.46;61.77;98543.69;7314342;19;128863;-36
2022/12/09 01:08:33;;;;;;;28.45;2.45;;;;;;;21.39;61.91;98542.69;7313875;19;130791;-36
2022/12/09 01:10:59;;;;;;;2.38;0.70;;;;;;;21.32;62.07;98531.25;7314669;19;130346;-37
2022/12/09 01:13:24;;;;;;;40.22;3.03;;;;;;;21.32;62.33;98549.56;7315598;19;129124;-38
2022/12/09 01:15:49;;;;;;;22.60;1.88;;;;;;;21.25;62.48;98539.91;7316246;19;129118;-35
2022/12/09 01:18:15;;;;;;;30.23;2.67;;;;;;;21.22;62.99;98545.47;7312684;19;129198;-36
2022/12/09 01:20:40;;;;;;;15.57;1.40;;;;;;;21.17;62.67;98548.56;7314611;19;129436;-37
2022/12/09 01:23:05;;;;;;;28.88;2.28;;;;;;;21.12;63.06;98553.44;7315482;19;129098;-36
2022/12/09 01:25:31;;;;;;;19.77;1.60;;;;;;;21.10;63.24;98557.22;7313690;19;129475;-36
2022/12/09 01:27:56;;;;;;;23.63;1.85;;;;;;;20.92;63.08;98544.28;7309190;19;129433;-38
2022/12/09 01:30:22;;;;;;;22.80;1.77;;;;;;;21.00;63.76;98565.22;7313627;19;129615;-35
2022/12/09 01:32:47;;;;;;;29.92;2.40;;;;;;;20.98;64.09;98569.78;7314757;19;129295;-35
2022/12/09 01:35:12;;;;;;;13.13;1.17;;;;;;;20.93;63.27;98561.56;7314479;19;128929;-37
2022/12/09 01:37:38;;;;;;;20.15;1.73;;;;;;;20.91;63.72;98558.28;7314070;19;129088;-36
2022/12/09 01:40:07;;;;;;;34.38;2.65;;;;;;;20.90;63.94;98566.28;7311417;19;131413;-36
2022/12/09 01:42:33;;;;;;;21.00;1.80;;;;;;;20.87;64.26;98570.06;7314964;19;129404;-35
2022/12/09 01:45:20;;;;;;;18.52;1.60;;;;;;;20.84;63.73;98567.75;7313545;19;129258;-35
2022/12/09 01:47:56;;;;;;;14.57;1.10;;;;;;;20.72;63.92;98548.16;7310754;19;130782;-34
2022/12/09 01:50:24;;;;;;;17.42;1.55;;;;;;;20.81;64.36;98562.84;7313186;19;129685;-36
2022/12/09 01:52:50;;;;;;;21.85;1.90;;;;;;;20.82;64.54;98563.66;7313979;19;129614;-34
2022/12/09 01:55:16;;;;;;;27.73;2.05;;;;;;;20.82;64.30;98561.06;7312950;19;129084;-37
2022/12/09 01:57:43;;;;;;;22.63;1.90;;;;;;;20.80;64.52;98566.44;7313234;19;130915;-38
2022/12/09 02:00:09;;;;;;;27.30;2.40;;;;;;;20.80;64.17;98566.44;7312275;19;129356;-36
2022/12/09 02:02:36;;;;;;;20.77;1.80;;;;;;;20.69;64.04;98538.03;7313782;19;129199;-35
2022/12/09 02:05:03;;;;;;;31.45;2.35;;;;;;;20.82;64.84;98559.28;7311941;19;128862;-36
2022/12/09 02:07:28;;;;;;;17.60;1.50;;;;;;;20.79;64.74;98551.75;7310624;19;129252;-37
2022/12/09 02:09:54;;;;;;;24.23;2.00;;;;;;;20.77;64.23;98553.72;7308264;19;129706;-36
2022/12/09 02:12:32;;;;;;;23.65;2.00;;;;;;;20.77;64.30;98545.03;7311955;19;128901;-34
2022/12/09 02:15:03;;;;;;;31.17;2.30;;;;;;;20.82;63.88;98540.97;7312252;19;128976;-37
2022/12/09 02:17:38;;;;;;;27.88;1.98;;;;;;;20.86;63.91;98529.22;7311343;19;129294;-35
2022/12/09 02:20:23;;;;;;;20.88;1.77;;;;;;;21.04;63.47;98548.22;7309522;19;129445;-37
2022/12/09 02:23:03;;;;;;;30.08;2.35;;;;;;;21.08;62.88;98523.41;7312304;19;130697;-36
2022/12/09 02:25:31;;;;;;;18.48;1.45;;;;;;;21.33;62.92;98542.53;7312725;19;129444;-35
2022/12/09 02:28:03;;;;;;;25.10;1.95;;;;;;;21.44;61.85;98540.41;7307692;19;129267;-33
2022/12/09 02:30:36;;;;;;;25.73;1.90;;;;;;;21.51;61.75;98536.16;7310880;19;129695;-37
2022/12/09 02:33:24;;;;;;;35.40;2.58;;;;;;;21.64;61.99;98536.47;7312234;19;129025;-36
2022/12/09 02:36:00;;;;;;;27.50;2.17;;;;;;;21.74;61.24;98544.13;7310819;19;128866;-34
2022/12/09 02:38:27;;;;;;;29.60;2.50;;;;;;;21.77;60.90;98542.03;7312795;19;129043;-36
2022/12/09 02:41:05;;;;;;;44.95;3.25;;;;;;;21.78;61.20;98538.44;7318268;19;130295;-36
2022/12/09 02:43:34;;;;;;;20.95;1.85;;;;;;;21.75;61.29;98533.50;7318884;19;129240;-35
2022/12/09 02:46:03;;;;;;;43.25;3.35;;;;;;;21.72;61.04;98533.84;7318147;19;129444;-33
2022/12/09 02:48:34;;;;;;;27.02;2.05;;;;;;;21.73;61.63;98532.06;7315162;19;129994;-35
2022/12/09 02:51:03;;;;;;;26.85;2.10;;;;;;;21.64;61.23;98530.41;7319072;19;129698;-35
2022/12/09 02:53:29;;;;;;;31.63;2.53;;;;;;;21.60;61.36;98535.16;7318061;19;129184;-34
2022/12/09 02:55:55;;;;;;;27.10;2.40;;;;;;;21.58;61.82;98531.91;7318160;19;128922;-39
2022/12/09 02:58:21;;;;;;;27.50;2.00;;;;;;;21.50;61.56;98539.75;7317401;19;129636;-34
2022/12/09 03:00:46;;;;;;;23.80;1.85;;;;;;;21.45;62.04;98536.00;7317338;19;129135;-34
2022/12/09 03:03:17;;;;;;;20.10;1.70;;;;;;;21.38;61.98;98521.94;7318041;19;128964;-33
2022/12/09 03:06:00;;;;;;;42.88;3.13;;;;;;;21.33;62.41;98527.69;7317205;19;129445;-35
2022/12/09 03:08:37;;;;;;;18.95;1.65;;;;;;;21.26;62.85;98524.06;7315876;19;129574;-36
2022/12/09 03:11:14;;;;;;;32.10;2.35;;;;;;;21.19;62.57;98520.47;7316782;19;129220;-34
2022/12/09 03:13:45;;;;;;;25.88;2.28;;;;;;;21.16;62.61;98523.41;7317516;19;130903;-35
2022/12/09 03:16:36;;;;;;;41.95;3.25;;;;;;;21.08;63.44;98518.19;7317707;19;129149;-36
2022/12/09 03:19:17;;;;;;;42.45;3.30;;;;;;;21.04;63.69;98522.09;7315046;19;129985;-37
2022/12/09 03:21:46;;;;;;;31.83;2.50;;;;;;;21.00;63.91;98525.19;7317307;19;129215;-35
2022/12/09 03:24:15;;;;;;;16.23;1.40;;;;;;;20.94;64.11;98524.00;7315555;19;129312;-35
2022/12/09 03:26:41;;;;;;;20.45;1.85;;;;;;;20.92;63.92;98518.16;7316337;19;129208;-36
2022/12/09 03:29:17;;;;;;;30.48;2.42;;;;;;;20.89;63.50;98518.44;7315080;19;130915;-35
2022/12/09 03:31:45;;;;;;;40.00;3.00;;;;;;;20.86;63.90;98517.97;7316552;19;128982;-37
2022/12/09 03:34:14;;;;;;;22.80;1.75;;;;;;;20.84;63.96;98535.59;7317261;19;129363;-37
2022/12/09 03:36:44;;;;;;;22.08;1.83;;;;;;;20.81;64.59;98525.47;7315343;19;128849;-33
2022/12/09 03:39:15;;;;;;;34.78;2.80;;;;;;;20.85;64.19;98519.75;7315056;19;129490;-34
2022/12/09 03:41:49;;;;;;;26.52;2.05;;;;;;;20.98;64.01;98517.53;7316030;19;130470;-37
2022/12/09 03:44:29;;;;;;;35.83;2.60;;;;;;;21.20;63.19;98516.91;7316719;19;129295;-37
2022/12/09 03:46:54;;;;;;;27.08;2.08;;;;;;;21.32;62.82;98499.88;7316618;19;129127;-35
2022/12/09 03:49:20;;;;;;;18.25;1.63;;;;;;;21.63;61.18;98524.38;7314773;19;129482;-34
2022/12/09 03:52:00;;;;;;;26.30;2.13;;;;;;;21.83;60.88;98515.19;7314937;19;129860;-36
2022/12/09 03:54:44;;;;;;;23.40;1.98;;;;;;;21.95;60.31;98520.91;7316691;19;129099;-35
2022/12/09 03:57:14;;;;;;;20.67;1.67;;;;;;;22.15;60.09;98508.25;7315081;19;128998;-35
2022/12/09 03:59:43;;;;;;;33.45;2.55;;;;;;;22.27;59.51;98512.13;7314903;19;129444;-35
2022/12/09 04:02:08;;;;;;;21.65;1.75;;;;;;;22.39;59.16;98516.00;7316244;19;129245;-36
2022/12/09 04:04:38;;;;;;;21.33;1.67;;;;;;;22.43;59.40;98517.31;7316864;19;129033;-35
2022/12/09 04:07:04;;;;;;;25.40;2.10;;;;;;;22.54;58.84;98509.91;7314443;19;129317;-36
2022/12/09 04:09:30;;;;;;;27.33;2.03;;;;;;;22.60;58.36;98508.38;7313493;19;129070;-35
2022/12/09 04:11:55;;;;;;;32.58;2.50;;;;;;;22.61;58.21;98502.97;7315389;19;129227;-36
2022/12/09 04:14:20;;;;;;;13.77;1.05;;;;;;;22.65;58.00;98501.66;7316624;19;129292;-33
2022/12/09 04:16:46;;;;;;;19.17;1.53;;;;;;;22.53;58.65;98482.06;7313866;19;128808;-34
2022/12/09 04:19:11;;;;;;;38.03;2.72;;;;;;;22.60;58.54;98498.75;7313531;19;129101;-36
2022/12/09 04:21:36;;;;;;;25.10;2.03;;;;;;;22.60;58.14;98495.28;7314753;19;129577;-36
2022/12/09 04:24:02;;;;;;;22.27;1.92;;;;;;;22.53;59.00;98503.03;7312938;19;129083;-38
2022/12/09 04:26:27;;;;;;;33.65;2.45;;;;;;;22.39;58.94;98484.56;7313074;19;129450;-36
2022/12/09 04:28:53;;;;;;;37.23;2.90;;;;;;;22.41;58.69;98493.09;7312878;19;129342;-36
2022/12/09 04:31:19;;;;;;;8.13;0.80;;;;;;;22.33;59.14;98485.28;7315471;19;129567;-38
2022/12/09 04:33:46;;;;;;;18.87;1.60;;;;;;;22.27;59.65;98485.94;7314403;19;129023;-38
2022/12/09 04:36:14;;;;;;;39.38;3.25;;;;;;;22.23;60.07;98489.91;7314475;19;129356;-34
2022/12/09 04:38:40;;;;;;;34.53;2.47;;;;;;;22.15;60.42;98492.56;7314238;19;129565;-36
2022/12/09 04:41:06;;;;;;;22.73;1.83;;;;;;;22.04;60.25;98485.06;7314102;19;129862;-33
2022/12/09 04:43:32;;;;;;;17.58;1.48;;;;;;;21.95;60.46;98479.84;7314921;19;129003;-33
2022/12/09 04:46:06;;;;;;;38.95;3.30;;;;;;;21.85;60.97;98481.03;7312034;19;129199;-36
2022/12/09 04:48:31;;;;;;;17.45;1.58;;;;;;;21.65;61.24;98475.31;7311049;19;129077;-35
2022/12/09 04:50:58;;;;;;;33.72;2.53;;;;;;;21.67;61.06;98494.28;7313074;19;130075;-34
2022/12/09 04:53:24;;;;;;;26.58;2.20;;;;;;;21.62;62.03;98486.13;7310726;19;130264;-36
2022/12/09 04:55:58;;;;;;;24.27;2.13;;;;;;;21.52;62.07;98503.78;7314233;19;129597;-34
2022/12/09 04:58:24;;;;;;;38.22;3.05;;;;;;;21.47;61.19;98502.66;7310641;19;129668;-33
2022/12/09 05:00:49;;;;;;;27.02;2.40;;;;;;;21.39;62.03;98500.88;7311490;19;130151;-38
2022/12/09 05:03:14;;;;;;;43.90;3.40;;;;;;;21.33;62.29;98501.53;7311379;19;129797;-34
2022/12/09 05:05:40;;;;;;;39.40;3.33;;;;;;;21.27;62.31;98507.41;7313059;19;129888;-35
2022/12/09 05:08:08;;;;;;;35.70;2.67;;;;;;;21.24;62.42;98510.34;7309998;19;130854;-35
2022/12/09 05:10:33;;;;;;;34.75;2.83;;;;;;;21.18;62.87;98505.78;7311935;19;129126;-39
2022/12/09 05:12:59;;;;;;;13.73;1.48;;;;;;;21.15;62.90;98513.94;7313322;19;129909;-34
2022/12/09 05:15:24;;;;;;;26.90;2.22;;;;;;;21.09;62.75;98509.34;7313089;19;129492;-33
2022/12/09 05:17:49;;;;;;;35.50;2.83;;;;;;;21.07;62.87;98505.28;7311563;19;129668;-35
2022/12/09 05:20:15;;;;;;;59.13;4.43;;;;;;;21.03;63.46;98507.41;7310814;19;129206;-35
2022/12/09 05:22:40;;;;;;;22.35;1.80;;;;;;;20.87;63.70;98483.84;7313580;19;129014;-35
2022/12/09 05:25:06;;;;;;;17.80;1.42;;;;;;;20.95;63.84;98496.91;7314051;19;129880;-34
2022/12/09 05:27:31;;;;;;;31.92;2.88;;;;;;;20.94;63.31;98504.91;7308601;19;129407;-37
2022/12/09 05:29:56;;;;;;;22.77;1.92;;;;;;;20.91;63.94;98500.03;7310610;19;129723;-33
2022/12/09 05:32:22;;;;;;;43.05;3.53;;;;;;;20.93;63.90;98498.88;7310370;19;129591;-37
2022/12/09 05:34:47;;;;;;;14.30;1.30;;;;;;;20.93;63.75;98498.88;7312409;19;129602;-36
2022/12/09 05:37:14;;;;;;;40.78;3.13;;;;;;;20.97;63.60;98500.22;7312428;19;129565;-36
2022/12/09 05:39:39;;;;;;;25.92;2.15;;;;;;;21.01;63.33;98496.28;7309738;19;130118;-36
2022/12/09 05:42:05;;;;;;;5.88;0.75;;;;;;;21.10;63.20;98495.31;7314084;19;128995;-36
2022/12/09 05:44:30;;;;;;;27.40;2.13;;;;;;;21.05;63.27;98481.94;7311228;19;130010;-37
2022/12/09 05:46:56;;;;;;;39.13;3.30;;;;;;;21.18;62.46;98497.94;7308942;19;132029;-36
2022/12/09 05:49:21;;;;;;;18.77;1.65;;;;;;;21.19;61.72;98480.47;7308957;19;129498;-32
2022/12/09 05:51:47;;;;;;;27.67;2.70;;;;;;;21.38;62.02;98503.66;7311984;19;129624;-35
2022/12/09 05:54:12;;;;;;;33.58;2.83;;;;;;;21.42;61.62;98503.16;7312327;19;129163;-32
2022/12/09 05:56:37;;;;;;;32.50;2.60;;;;;;;21.49;61.57;98501.50;7311377;19;129847;-36
2022/12/09 05:59:03;;;;;;;13.70;1.65;;;;;;;21.48;60.97;98489.44;7310536;19;130303;-36
2022/12/09 06:01:28;;;;;;;36.45;3.17;;;;;;;21.60;61.21;98490.69;7307766;19;129025;-38
2022/12/09 06:03:54;;;;;;;37.37;3.20;;;;;;;21.51;61.03;98473.41;7307104;19;129369;-38
2022/12/09 06:06:22;;;;;;;65.20;5.43;;;;;;;21.59;61.20;98473.38;7309969;19;130221;-40
2022/12/09 06:08:48;;;;;;;29.38;2.65;;;;;;;21.64;61.08;98478.94;7309480;19;131089;-35
2022/12/09 06:11:16;;;;;;;24.83;2.15;;;;;;;21.65;61.13;98480.56;7311905;19;129187;-38
2022/12/09 06:13:42;;;;;;;39.05;3.28;;;;;;;21.59;61.36;98486.47;7305673;19;129230;-36
2022/12/09 06:16:09;;;;;;;50.85;4.45;;;;;;;21.60;61.23;98492.50;7310524;19;129812;-40
2022/12/09 06:18:35;;;;;;;20.83;2.03;;;;;;;21.59;61.35;98480.41;7308267;19;129799;-36
2022/12/09 06:21:09;;;;;;;28.35;2.30;;;;;;;21.62;61.10;98486.13;7309245;19;130137;-35
2022/12/09 06:23:36;;;;;;;32.85;2.55;;;;;;;21.54;61.03;98467.84;7312666;19;129062;-37
2022/12/09 06:26:01;;;;;;;42.10;3.47;;;;;;;21.54;61.55;98473.06;7307506;19;130583;-37
2022/12/09 06:28:27;;;;;;;20.98;1.88;;;;;;;21.68;61.24;98487.25;7310001;19;129121;-36
2022/12/09 06:30:52;;;;;;;23.17;1.90;;;;;;;21.71;61.27;98495.59;7311439;19;129227;-36
2022/12/09 06:33:17;;;;;;;27.17;2.15;;;;;;;21.71;60.88;98490.38;7311574;19;129024;-35
2022/12/09 06:35:43;;;;;;;32.72;2.83;;;;;;;21.75;61.24;98496.09;7311535;19;130310;-33
2022/12/09 06:38:08;;;;;;;25.52;2.13;;;;;;;21.73;61.10;98498.03;7308290;19;129465;-38
2022/12/09 06:40:33;;;;;;;25.77;2.33;;;;;;;21.74;60.85;98500.50;7309428;19;129304;-37
2022/12/09 06:42:59;;;;;;;41.20;3.28;;;;;;;21.77;60.64;98491.50;7311065;19;128841;-35
2022/12/09 06:45:24;;;;;;;26.93;2.30;;;;;;;21.76;61.05;98495.94;7309197;19;130172;-35
2022/12/09 06:47:49;;;;;;;8.60;1.05;;;;;;;21.76;61.03;98490.72;7309226;19;130358;-33
2022/12/09 06:50:15;;;;;;;53.78;4.38;;;;;;;21.77;61.03;98491.50;7309395;19;129360;-36
2022/12/09 06:57:08;;;;;;;65.35;9.77;;;;;;;21.54;52.55;98493.16;7285048;19;129761;-77
2022/12/09 06:59:34;;;;;;;64.07;8.47;;;;;;;21.79;54.67;98493.00;7165155;19;3125610;-74
2022/12/09 07:01:59;;;;;;;47.60;6.17;;;;;;;22.07;55.00;98489.94;7340568;19;130579;-76
2022/12/09 07:04:26;;;;;;;22.40;4.13;;;;;;;22.23;55.82;98495.94;7353888;19;128928;-78
2022/12/09 07:06:51;;;;;;;38.50;5.05;;;;;;;22.26;56.25;98482.53;7350132;19;128872;-80
2022/12/09 07:09:19;;;;;;;20.33;4.13;;;;;;;22.19;56.66;98470.28;7364997;19;128578;-80
2022/12/09 07:11:45;;;;;;;43.45;5.38;;;;;;;22.37;57.14;98497.03;7348676;19;129689;-79
2022/12/09 07:14:12;;;;;;;23.07;3.77;;;;;;;22.46;57.39;98496.00;7355573;19;129804;-78
2022/12/09 07:16:37;;;;;;;38.95;4.63;;;;;;;22.52;57.64;98497.94;7349967;19;129281;-77
2022/12/09 07:19:03;;;;;;;26.80;4.13;;;;;;;22.65;57.44;98498.22;7350467;19;129391;-79
2022/12/09 07:21:29;;;;;;;28.23;4.13;;;;;;;22.69;57.15;98505.53;7352156;19;129261;-79
2022/12/09 07:23:57;;;;;;;35.50;4.27;;;;;;;22.84;56.86;98506.44;7348348;19;129523;-78
2022/12/09 07:26:22;;;;;;;39.67;4.82;;;;;;;22.92;56.98;98502.97;7347787;19;129199;-78
2022/12/09 07:28:49;;;;;;;26.17;3.95;;;;;;;23.03;56.90;98499.91;7345041;19;129208;-76
2022/12/09 07:31:17;;;;;;;25.75;3.72;;;;;;;23.16;56.40;98505.38;7351022;19;129559;-81
2022/12/09 07:33:42;;;;;;;33.40;4.40;;;;;;;23.28;56.13;98508.44;7349421;19;129408;-75
2022/12/09 07:36:08;;;;;;;35.17;4.45;;;;;;;23.12;56.30;98485.78;7346263;19;129113;-72
2022/12/09 07:38:33;;;;;;;32.80;4.45;;;;;;;23.25;56.34;98509.59;7347585;19;129326;-76
2022/12/09 07:41:06;;;;;;;31.05;3.95;;;;;;;23.37;56.30;98513.44;7344139;19;132198;-77
2022/12/09 07:43:33;;;;;;;24.98;3.60;;;;;;;23.39;56.33;98510.66;7348689;19;130092;-76
2022/12/09 07:45:58;;;;;;;32.45;4.60;;;;;;;23.41;56.23;98509.47;7350412;19;129146;-75
2022/12/09 07:48:24;;;;;;;29.40;4.50;;;;;;;23.49;55.87;98511.19;7348934;19;128998;-77
2022/12/09 07:50:49;;;;;;;21.60;3.40;;;;;;;23.52;56.39;98511.66;7345508;19;129689;-76
2022/12/09 07:53:14;;;;;;;39.80;4.93;;;;;;;23.56;55.89;98512.94;7348537;19;130116;-74
2022/12/09 07:55:40;;;;;;;45.83;5.50;;;;;;;23.65;56.05;98514.50;7344626;19;130219;-78
2022/12/09 07:58:05;;;;;;;27.58;4.30;;;;;;;23.61;55.86;98509.78;7352730;19;129390;-78
2022/12/09 08:00:30;;;;;;;16.97;3.33;;;;;;;23.71;56.34;98511.16;7349864;19;129673;-78
2022/12/09 08:02:56;;;;;;;17.60;3.95;;;;;;;23.86;55.99;98508.56;7360905;19;133030;-84
2022/12/09 08:05:21;;;;;;;34.80;4.50;;;;;;;23.87;55.95;98502.28;7360703;19;128766;-79
2022/12/09 08:07:46;;;;;;;22.77;4.10;;;;;;;23.92;55.65;98505.19;7330401;19;129373;-78
2022/12/09 08:10:12;;;;;;;35.60;4.70;;;;;;;23.94;55.48;98500.59;7325017;19;129417;-78
2022/12/09 08:12:38;;;;;;;42.30;5.07;;;;;;;23.87;55.43;98503.13;7319104;19;133007;-77
2022/12/09 08:15:04;;;;;;;45.05;5.75;;;;;;;23.84;55.61;98500.84;7321219;19;129205;-76
2022/12/09 08:17:31;;;;;;;24.53;4.23;;;;;;;23.79;55.70;98502.38;7317979;19;129343;-75
2022/12/09 08:19:57;;;;;;;21.10;3.60;;;;;;;23.68;56.86;98493.16;7323828;19;129487;-77
2022/12/09 08:22:22;;;;;;;41.70;5.40;;;;;;;23.48;56.20;98494.66;7321553;19;131521;-76
2022/12/09 08:24:47;;;;;;;30.17;4.63;;;;;;;23.47;56.64;98497.47;7324183;19;129094;-76
2022/12/09 08:27:13;;;;;;;33.83;4.77;;;;;;;23.47;56.91;98506.13;7326301;19;129172;-75
2022/12/09 08:29:38;;;;;;;43.33;5.83;;;;;;;23.42;57.45;98500.59;7317036;19;129332;-78
2022/12/09 08:32:03;;;;;;;37.30;5.07;;;;;;;23.49;57.42;98506.78;7320153;19;129784;-82
2022/12/09 08:34:29;;;;;;;28.63;4.57;;;;;;;23.53;57.00;98504.63;7322194;19;129317;-77
2022/12/09 08:36:54;;;;;;;24.70;4.25;;;;;;;23.51;57.34;98494.31;7314874;19;128909;-78
2022/12/09 08:39:19;;;;;;;24.08;3.80;;;;;;;23.64;56.73;98504.16;7324805;19;129630;-75
2022/12/09 08:41:45;;;;;;;37.17;5.30;;;;;;;23.71;56.65;98516.41;7316076;19;131256;-76
2022/12/09 08:44:16;;;;;;;22.60;4.00;;;;;;;23.61;56.47;98497.50;7315941;19;128978;-77
2022/12/09 08:46:47;;;;;;;20.48;4.03;;;;;;;23.87;56.71;98500.50;7318520;19;129423;-78
2022/12/09 08:49:16;;;;;;;22.00;4.10;;;;;;;23.88;56.26;98507.34;7320435;19;129087;-78
2022/12/09 08:51:43;;;;;;;29.73;4.88;;;;;;;23.93;56.54;98504.22;7318020;19;132599;-80
2022/12/09 08:54:09;;;;;;;;;;;;;;;23.90;56.47;98505.38;7324820;19;128495;-77
2022/12/09 08:56:34;;;;;;;12.20;3.40;;;;;;;23.95;56.46;98491.69;7315039;19;129104;-78
2022/12/09 08:58:59;;;;;;;44.15;5.35;;;;;;;23.98;55.82;98501.91;7331420;19;130075;-81
2022/12/09 09:01:31;;;;;;;28.27;4.10;;;;;;;24.02;56.33;98503.97;7320721;19;129119;-79
2022/12/09 09:03:59;;;;;;;41.45;5.45;;;;;;;24.05;55.83;98495.72;7322266;19;129020;-76
2022/12/09 09:06:24;;;;;;;25.83;4.45;;;;;;;24.17;55.80;98502.16;7319623;19;129024;-75
2022/12/09 09:08:49;;;;;;;18.83;3.90;;;;;;;24.21;55.21;98494.72;7325397;19;129258;-83
2022/12/09 09:11:19;;;;;;;33.67;4.80;;;;;;;24.20;55.52;98486.03;7322397;19;132142;-76
2022/12/09 09:13:46;;;;;;;27.33;4.32;;;;;;;24.22;55.83;98489.28;7326360;19;128793;-79
2022/12/09 09:16:18;;;;;;;48.10;5.25;;;;;;;24.28;55.51;98487.72;7318962;19;129880;-78
2022/12/09 09:18:44;;;;;;;22.90;4.13;;;;;;;24.24;55.65;98487.31;7313381;19;132140;-77
2022/12/09 09:21:13;;;;;;;31.43;4.23;;;;;;;24.23;55.68;98484.81;7324517;19;129404;-79
2022/12/09 09:23:39;;;;;;;28.70;4.63;;;;;;;24.22;55.04;98489.28;7325421;19;128752;-76
2022/12/09 09:26:29;;;;;;;12.27;3.50;;;;;;;24.17;55.57;98483.78;7322300;19;129135;-80
2022/12/09 09:28:57;;;;;;;34.35;5.10;;;;;;;24.10;55.54;98482.84;7326987;19;129570;-71
2022/12/09 09:31:23;;;;;;;18.38;3.33;;;;;;;23.90;56.46;98484.38;7319198;19;129906;-77
2022/12/09 09:33:49;;;;;;;28.38;4.20;;;;;;;23.86;56.66;98482.31;7323226;19;128776;-79
2022/12/09 09:36:21;;;;;;;47.63;5.50;;;;;;;23.76;56.59;98481.75;7324511;19;129122;-82
2022/12/09 09:38:47;;;;;;;22.65;4.18;;;;;;;23.83;56.76;98480.03;7327607;19;129505;-77
2022/12/09 09:41:21;;;;;;;21.20;4.35;;;;;;;23.82;56.46;98475.78;7326984;19;128779;-82
2022/12/09 09:43:47;;;;;;;153.82;13.27;;;;;;;23.88;56.87;98477.69;7319685;19;129893;-78
2022/12/09 09:46:43;;;;;;;27.73;4.07;;;;;;;23.91;56.48;98461.56;7323445;19;128956;-76
2022/12/09 09:49:18;;;;;;;17.48;3.90;;;;;;;23.96;56.33;98462.66;7321010;19;129632;-78
2022/12/09 09:51:44;;;;;;;36.30;5.18;;;;;;;23.88;51.68;98462.72;7314349;19;129478;-74
2022/12/09 09:54:13;;;;;;;22.17;4.37;;;;;;;23.77;50.16;98457.94;7324525;19;128711;-79
2022/12/09 09:56:53;;;;;;;31.35;4.85;;;;;;;23.72;50.60;98454.22;7318041;19;130085;-75
2022/12/09 09:59:36;;;;;;;21.30;3.92;;;;;;;23.75;50.98;98449.44;7317767;19;130537;-77
2022/12/09 10:02:10;;;;;;;20.85;4.00;;;;;;;23.75;51.10;98443.38;7317766;19;131153;-82
2022/12/09 10:04:54;;;;;;;20.50;4.30;;;;;;;23.78;49.99;98435.97;7318958;19;129465;-81
2022/12/09 10:07:40;;;;;;;26.40;4.65;;;;;;;23.82;50.06;98439.84;7316894;19;129094;-78
2022/12/09 10:10:18;;;;;;;31.42;4.78;;;;;;;23.82;49.81;98429.34;7317203;19;132364;-74
2022/12/09 10:12:56;;;;;;;21.27;4.22;;;;;;;23.84;49.69;98434.41;7316656;19;132008;-79
2022/12/09 10:15:28;;;;;;;17.90;3.90;;;;;;;23.74;49.73;98411.06;7318142;19;128818;-75
2022/12/09 10:18:02;;;;;;;32.92;5.00;;;;;;;23.87;49.41;98427.00;7316528;19;128664;-78
2022/12/09 10:20:29;;;;;;;27.60;4.95;;;;;;;23.88;48.88;98422.56;7317669;19;129815;-75
2022/12/09 10:23:05;;;;;;;22.45;4.38;;;;;;;23.89;48.57;98418.94;7315231;19;130130;-74
2022/12/09 10:25:34;;;;;;;43.42;5.85;;;;;;;23.94;49.30;98425.28;7311766;19;128812;-77
2022/12/09 10:28:24;;;;;;;44.08;5.97;;;;;;;23.84;49.00;98427.38;7313645;19;129342;-77
2022/12/09 10:30:52;;;;;;;81.30;7.68;;;;;;;23.68;49.03;98400.50;7310271;19;129716;-73
2022/12/09 10:33:24;;;;;;;30.35;5.03;;;;;;;23.66;49.30;98426.09;7317311;19;129977;-75
2022/12/09 10:35:49;;;;;;;48.13;5.78;;;;;;;23.59;49.07;98418.13;7311246;19;129027;-75
2022/12/09 10:38:17;;;;;;;25.53;4.37;;;;;;;23.47;49.87;98416.16;7313369;19;128711;-76
2022/12/09 10:40:51;;;;;;;44.85;5.85;;;;;;;23.39;50.23;98411.78;7310743;19;130940;-72
2022/12/09 10:43:33;;;;;;;31.65;4.90;;;;;;;23.35;50.08;98415.78;7311311;19;132873;-77
2022/12/09 10:46:01;;;;;;;33.63;5.03;;;;;;;23.33;49.90;98407.25;7316602;19;128938;-74
2022/12/09 10:48:47;;;;;;;26.75;4.55;;;;;;;23.38;49.51;98404.09;7312447;19;128902;-74
2022/12/09 10:51:14;;;;;;;41.22;5.20;;;;;;;23.39;50.04;98396.03;7325104;19;129564;-73
2022/12/09 10:53:55;;;;;;;42.13;5.65;;;;;;;23.41;50.27;98395.88;7311858;19;132315;-73
2022/12/09 10:56:30;;;;;;;18.33;4.05;;;;;;;23.45;50.03;98395.34;7310529;19;129857;-75
2022/12/09 10:59:29;;;;;;;20.63;4.28;;;;;;;23.50;49.75;98385.13;7313524;19;129014;-76
2022/12/09 11:02:00;;;;;;;26.05;4.57;;;;;;;23.61;49.66;98376.78;7309393;19;129226;-75
2022/12/09 11:04:27;;;;;;;21.75;3.70;;;;;;;23.63;48.33;98382.69;7311708;19;132316;-75
2022/12/09 11:06:56;;;;;;;40.58;5.38;;;;;;;23.60;48.53;98372.53;7312436;19;128821;-73
2022/12/09 11:09:30;;;;;;;16.75;4.22;;;;;;;23.66;49.14;98387.56;7314552;19;129438;-72
2022/12/09 11:11:56;;;;;;;35.20;5.00;;;;;;;23.67;48.65;98381.28;7311360;19;129533;-74
2022/12/09 11:14:27;;;;;;;31.63;4.50;;;;;;;23.68;49.00;98390.81;7311708;19;131841;-72
2022/12/09 11:16:55;;;;;;;46.58;5.30;;;;;;;23.76;48.57;98382.84;7311321;19;128862;-74
2022/12/09 11:19:36;;;;;;;39.72;5.30;;;;;;;23.76;49.25;98374.16;7312718;19;128774;-75
2022/12/09 11:22:37;;;;;;;32.35;4.35;;;;;;;23.66;49.08;98365.75;7311547;19;129351;-72
2022/12/09 11:25:12;;;;;;;58.95;6.53;;;;;;;23.76;49.59;98377.59;7312676;19;129850;-72
2022/12/09 11:27:40;;;;;;;29.83;4.35;;;;;;;23.76;49.60;98374.97;7311892;19;129076;-75